Terminal Aerodrome Forecast
Issued by NWS Spokane, WA

Current Version | Previous Version | Text Only | Print | Product List | Glossary On
Versions: 1 2 3 4 5 6 7 8 9 10 11 12 13 14 15 16 17 18 19 20 21 22 23 24 25 26 27 28
000
FTUS46 KOTX 020541
TAFGEG
TAF
KGEG 020541Z 0206/0306 19012KT P6SM SCT070 BKN120 OVC150
     FM021200 20015G20KT P6SM BKN050 BKN100
     FM021900 20015G22KT P6SM VCSH SCT050 BKN080=

USA.gov is the U.S. government's official web portal to all federal, state and local government web resources and services.